Time;durP1;ratioP1;P1;durP2;ratioP2;P2;SDS_P1;SDS_P2;PMS_P1;PMS_P2;Temp;Humidity;BMP_temperature;BMP_pressure;BME280_temperature;BME280_humidity;BME280_pressure;Samples;Min_cycle;Max_cycle;Signal;HPM_P1;HPM_P2
2021/12/14 00:00:28;;;;;;;22.80;14.38;;;;;;;2.92;100.00;101013.88;6182861;23;20037;-89
2021/12/14 00:02:55;;;;;;;20.65;14.25;;;;;;;2.91;100.00;101001.38;6183502;23;20020;-88
2021/12/14 00:05:22;;;;;;;20.55;13.90;;;;;;;2.91;100.00;101006.84;6157818;23;20456;-89
2021/12/14 00:07:49;;;;;;;20.55;14.38;;;;;;;2.90;100.00;101008.78;6182587;23;20017;-89
2021/12/14 00:10:43;;;;;;;23.00;14.13;;;;;;;2.88;100.00;101004.81;6183761;23;20013;-88
2021/12/14 00:13:26;;;;;;;20.02;13.88;;;;;;;2.83;100.00;100999.63;6183291;23;20308;-89
2021/12/14 00:15:53;;;;;;;22.02;14.38;;;;;;;2.78;100.00;101004.25;6160900;23;20036;-89
2021/12/14 00:18:20;;;;;;;22.77;14.30;;;;;;;2.79;100.00;101010.53;6184858;23;20005;-89
2021/12/14 00:21:00;;;;;;;20.45;14.02;;;;;;;2.65;100.00;101010.22;6158826;23;20009;-89
2021/12/14 00:26:16;;;;;;;21.55;14.57;;;;;;;2.66;100.00;101020.84;6184731;23;20013;-89
2021/12/14 00:28:41;;;;;;;23.63;14.80;;;;;;;2.61;100.00;101026.59;6182213;23;20008;-89
2021/12/14 00:31:10;;;;;;;22.23;14.55;;;;;;;2.66;100.00;101022.78;6182551;23;20009;-88
2021/12/14 00:33:38;;;;;;;22.67;15.02;;;;;;;2.66;100.00;101025.50;6183976;23;20039;-88
2021/12/14 00:36:07;;;;;;;22.50;14.85;;;;;;;2.63;100.00;101027.00;6182369;23;20017;-89
2021/12/14 00:38:34;;;;;;;22.33;14.00;;;;;;;2.63;100.00;101024.28;6182421;23;20375;-89
2021/12/14 00:41:08;;;;;;;22.92;15.25;;;;;;;2.61;100.00;101026.59;6183838;23;20009;-88
2021/12/14 00:43:33;;;;;;;;;;;;;;;2.64;100.00;101036.81;6183598;23;20021;-89
2021/12/14 00:45:59;;;;;;;21.92;14.65;;;;;;;2.61;100.00;101032.06;6183716;23;19912;-88
2021/12/14 00:48:24;;;;;;;23.40;15.07;;;;;;;2.60;100.00;101037.91;6182726;23;20348;-89
2021/12/14 00:50:55;;;;;;;22.63;15.20;;;;;;;2.58;100.00;101042.94;6183730;23;20443;-88
2021/12/14 00:53:21;;;;;;;22.95;15.15;;;;;;;2.54;100.00;101045.63;6182450;23;20024;-89
2021/12/14 00:55:49;;;;;;;22.40;15.07;;;;;;;2.55;100.00;101038.19;6183432;23;20039;-88
2021/12/14 00:58:15;;;;;;;21.33;14.32;;;;;;;2.54;100.00;101045.63;6182546;23;20382;-88
2021/12/14 01:01:01;;;;;;;20.58;14.25;;;;;;;2.45;100.00;101025.84;6182352;23;20834;-88
2021/12/14 01:03:31;;;;;;;23.48;15.30;;;;;;;2.44;100.00;101048.91;6157340;23;20025;-88
2021/12/14 01:05:59;;;;;;;24.08;16.30;;;;;;;2.38;100.00;101016.69;6181758;23;20017;-89
2021/12/14 01:08:27;;;;;;;25.33;16.20;;;;;;;2.43;100.00;101041.81;6183544;23;20001;-88
2021/12/14 01:11:04;;;;;;;23.67;16.00;;;;;;;2.43;100.00;101050.03;6181891;23;20107;-89
2021/12/14 01:13:32;;;;;;;24.88;17.08;;;;;;;2.41;100.00;101044.16;6182222;23;20017;-89
2021/12/14 01:16:14;;;;;;;30.98;18.65;;;;;;;2.41;100.00;101030.47;6181329;23;20456;-90
2021/12/14 01:18:47;;;;;;;28.75;18.67;;;;;;;2.45;100.00;101044.22;6181661;23;20035;-89
2021/12/14 01:24:04;;;;;;;24.85;16.27;;;;;;;2.56;100.00;101046.03;6182457;23;20013;-88
2021/12/14 01:26:33;;;;;;;27.80;18.10;;;;;;;2.61;100.00;101032.06;6181884;23;20095;-90
2021/12/14 01:29:00;;;;;;;28.85;17.52;;;;;;;2.60;100.00;101030.47;6183226;23;20068;-80
2021/12/14 01:31:31;;;;;;;24.52;16.98;;;;;;;2.61;100.00;101034.81;6181622;23;20013;-80
2021/12/14 01:34:03;;;;;;;28.38;17.33;;;;;;;2.52;100.00;101015.03;6181226;23;20016;-80
2021/12/14 01:41:58;;;;;;;30.20;17.90;;;;;;;2.50;100.00;100998.19;6076724;23;20023;-80
2021/12/14 01:44:28;;;;;;;33.80;20.27;;;;;;;2.54;100.00;101020.16;6157231;23;20013;-80
2021/12/14 01:46:58;;;;;;;56.03;28.80;;;;;;;2.51;100.00;101021.66;6156912;23;20043;-80
2021/12/14 01:49:42;;;;;;;41.35;22.90;;;;;;;2.43;100.00;101022.66;6182449;23;20351;-80
2021/12/14 01:52:34;;;;;;;33.10;19.55;;;;;;;2.35;100.00;101027.19;6159267;23;20020;-80
2021/12/14 01:55:07;;;;;;;30.48;17.85;;;;;;;2.36;100.00;101025.25;6180571;23;20568;-80
2021/12/14 01:57:34;;;;;;;40.90;22.40;;;;;;;2.27;100.00;101022.72;6181374;23;20021;-80
2021/12/14 02:00:01;;;;;;;34.22;20.15;;;;;;;2.28;100.00;101023.50;6181317;23;20012;-80
2021/12/14 02:02:34;;;;;;;34.25;19.80;;;;;;;2.31;100.00;101020.03;6159659;23;20017;-82
2021/12/14 02:05:07;;;;;;;42.77;24.63;;;;;;;2.36;100.00;101030.72;6180938;23;20016;-82
2021/12/14 02:07:37;;;;;;;38.08;21.60;;;;;;;2.39;100.00;101021.78;6180407;23;20017;-82
2021/12/14 02:10:11;;;;;;;40.00;21.42;;;;;;;2.41;100.00;101022.25;6181360;23;20021;-82
2021/12/14 02:12:45;;;;;;;38.45;23.35;;;;;;;2.41;100.00;101022.25;6182852;23;20083;-82
2021/12/14 02:15:29;;;;;;;33.20;19.90;;;;;;;2.26;100.00;100998.44;6157062;23;20049;-82
2021/12/14 02:17:58;;;;;;;34.92;20.33;;;;;;;2.39;100.00;101013.56;6180589;23;20016;-83
2021/12/14 02:20:28;;;;;;;32.53;20.27;;;;;;;2.41;100.00;101010.50;6181101;23;20016;-83
2021/12/14 02:22:54;;;;;;;34.03;20.48;;;;;;;2.50;100.00;101017.38;6180834;23;20017;-83
2021/12/14 02:25:19;;;;;;;36.80;22.30;;;;;;;2.52;100.00;101012.31;6182899;23;20036;-81
2021/12/14 02:27:50;;;;;;;35.67;22.80;;;;;;;2.57;100.00;101009.28;6182698;23;20423;-82
2021/12/14 02:30:24;;;;;;;40.50;24.83;;;;;;;2.58;100.00;101016.34;6180947;23;20477;-82
2021/12/14 02:32:49;;;;;;;;;;;;;;;2.57;100.00;101012.03;6181123;23;20036;-82
2021/12/14 02:35:19;;;;;;;33.38;17.80;;;;;;;2.55;100.00;101011.56;6180787;23;20401;-82
2021/12/14 02:37:49;;;;;;;28.08;17.98;;;;;;;2.57;100.00;101008.50;6182787;23;20028;-82
2021/12/14 02:43:13;;;;;;;26.60;16.83;;;;;;;2.57;100.00;101003.00;6182358;23;20013;-82
2021/12/14 02:45:39;;;;;;;23.23;15.45;;;;;;;2.59;100.00;101000.72;6183270;23;20012;-82
2021/12/14 02:48:08;;;;;;;22.98;15.80;;;;;;;2.60;100.00;100997.59;6182505;23;20013;-82
2021/12/14 02:50:34;;;;;;;23.83;15.57;;;;;;;2.58;100.00;100997.19;6158196;23;20024;-82
2021/12/14 02:53:00;;;;;;;23.55;15.48;;;;;;;2.60;100.00;101003.09;6184423;23;20014;-82
2021/12/14 02:55:27;;;;;;;23.70;15.25;;;;;;;2.61;100.00;101006.63;6182460;23;20021;-82
2021/12/14 02:57:57;;;;;;;27.50;15.75;;;;;;;2.62;100.00;101005.47;6182693;23;20025;-81
2021/12/14 03:00:34;;;;;;;25.95;15.32;;;;;;;2.59;100.00;101006.97;6182939;23;20070;-82
2021/12/14 03:03:01;;;;;;;24.40;15.50;;;;;;;2.63;100.00;101007.84;6183722;23;20069;-82
2021/12/14 03:05:33;;;;;;;26.73;15.98;;;;;;;2.64;100.00;101012.16;6183262;23;20009;-81
2021/12/14 03:08:14;;;;;;;25.23;16.05;;;;;;;2.63;100.00;101007.84;6182215;23;20032;-82
2021/12/14 03:10:55;;;;;;;27.35;16.50;;;;;;;2.62;100.00;101002.72;6184360;23;20104;-82
2021/12/14 03:13:23;;;;;;;25.58;16.80;;;;;;;2.70;100.00;101002.53;6182770;23;20017;-82
